sensor_id;sensor_type;location;lat;lon;timestamp;pressure;altitude;pressure_sealevel;temperature
64916;BMP280;51427;-27.442;153.014;2023-02-19T00:01:47;101691.56;;;27.46
64916;BMP280;51427;-27.442;153.014;2023-02-19T00:04:17;101701.53;;;27.67
64916;BMP280;51427;-27.442;153.014;2023-02-19T00:06:46;101702.75;;;27.20
64916;BMP280;51427;-27.442;153.014;2023-02-19T00:09:17;101701.44;;;27.16
64916;BMP280;51427;-27.442;153.014;2023-02-19T00:11:45;101688.19;;;27.46
64916;BMP280;51427;-27.442;153.014;2023-02-19T00:14:18;101683.00;;;28.06
64916;BMP280;51427;-27.442;153.014;2023-02-19T00:16:47;101689.03;;;27.97
64916;BMP280;51427;-27.442;153.014;2023-02-19T00:19:17;101680.72;;;28.36
64916;BMP280;51427;-27.442;153.014;2023-02-19T00:21:45;101674.94;;;28.34
64916;BMP280;51427;-27.442;153.014;2023-02-19T00:24:14;101665.66;;;28.65
64916;BMP280;51427;-27.442;153.014;2023-02-19T00:26:42;101680.69;;;28.28
64916;BMP280;51427;-27.442;153.014;2023-02-19T00:29:16;101677.84;;;27.81
64916;BMP280;51427;-27.442;153.014;2023-02-19T00:31:44;101671.69;;;27.99
64916;BMP280;51427;-27.442;153.014;2023-02-19T00:34:13;101677.75;;;28.15
64916;BMP280;51427;-27.442;153.014;2023-02-19T00:36:42;101679.06;;;27.94
64916;BMP280;51427;-27.442;153.014;2023-02-19T00:39:12;101680.91;;;28.42
64916;BMP280;51427;-27.442;153.014;2023-02-19T00:41:41;101668.94;;;28.67
64916;BMP280;51427;-27.442;153.014;2023-02-19T00:44:10;101675.25;;;28.96
64916;BMP280;51427;-27.442;153.014;2023-02-19T00:46:44;101660.63;;;28.39
64916;BMP280;51427;-27.442;153.014;2023-02-19T00:49:17;101658.97;;;27.97
64916;BMP280;51427;-27.442;153.014;2023-02-19T00:51:46;101660.38;;;28.17
64916;BMP280;51427;-27.442;153.014;2023-02-19T00:54:14;101658.94;;;28.64
64916;BMP280;51427;-27.442;153.014;2023-02-19T00:56:42;101667.59;;;28.63
64916;BMP280;51427;-27.442;153.014;2023-02-19T00:59:10;101656.94;;;29.30
64916;BMP280;51427;-27.442;153.014;2023-02-19T01:01:37;101645.66;;;29.39
64916;BMP280;51427;-27.442;153.014;2023-02-19T01:04:05;101655.91;;;28.68
64916;BMP280;51427;-27.442;153.014;2023-02-19T01:06:33;101656.28;;;28.07
64916;BMP280;51427;-27.442;153.014;2023-02-19T01:09:02;101654.41;;;28.58
64916;BMP280;51427;-27.442;153.014;2023-02-19T01:11:31;101657.06;;;28.97
64916;BMP280;51427;-27.442;153.014;2023-02-19T01:14:00;101652.56;;;28.34
64916;BMP280;51427;-27.442;153.014;2023-02-19T01:16:27;101630.66;;;29.03
64916;BMP280;51427;-27.442;153.014;2023-02-19T01:18:57;101646.59;;;28.99
64916;BMP280;51427;-27.442;153.014;2023-02-19T01:21:26;101643.72;;;29.33
64916;BMP280;51427;-27.442;153.014;2023-02-19T01:23:55;101648.25;;;29.39
64916;BMP280;51427;-27.442;153.014;2023-02-19T01:26:25;101636.47;;;29.13
64916;BMP280;51427;-27.442;153.014;2023-02-19T01:28:53;101621.66;;;29.23
64916;BMP280;51427;-27.442;153.014;2023-02-19T01:31:23;101630.97;;;28.84
64916;BMP280;51427;-27.442;153.014;2023-02-19T01:33:53;101622.91;;;28.72
64916;BMP280;51427;-27.442;153.014;2023-02-19T01:36:22;101616.59;;;28.66
64916;BMP280;51427;-27.442;153.014;2023-02-19T01:38:50;101619.19;;;28.66
64916;BMP280;51427;-27.442;153.014;2023-02-19T01:41:21;101624.28;;;28.58
64916;BMP280;51427;-27.442;153.014;2023-02-19T01:46:29;101613.44;;;29.97
64916;BMP280;51427;-27.442;153.014;2023-02-19T01:49:05;101605.06;;;30.25
64916;BMP280;51427;-27.442;153.014;2023-02-19T01:51:38;101621.31;;;29.34
64916;BMP280;51427;-27.442;153.014;2023-02-19T01:54:09;101614.88;;;29.38
64916;BMP280;51427;-27.442;153.014;2023-02-19T01:56:40;101623.41;;;28.91
64916;BMP280;51427;-27.442;153.014;2023-02-19T01:59:09;101615.03;;;29.44
64916;BMP280;51427;-27.442;153.014;2023-02-19T02:01:38;101615.66;;;29.38
64916;BMP280;51427;-27.442;153.014;2023-02-19T02:04:07;101620.81;;;29.46
64916;BMP280;51427;-27.442;153.014;2023-02-19T02:06:52;101623.53;;;29.53
64916;BMP280;51427;-27.442;153.014;2023-02-19T02:09:23;101623.56;;;29.37
64916;BMP280;51427;-27.442;153.014;2023-02-19T02:12:11;101612.44;;;29.52
64916;BMP280;51427;-27.442;153.014;2023-02-19T02:14:42;101602.94;;;29.37
64916;BMP280;51427;-27.442;153.014;2023-02-19T02:22:43;101591.78;;;29.60
64916;BMP280;51427;-27.442;153.014;2023-02-19T02:25:47;101599.31;;;29.69
64916;BMP280;51427;-27.442;153.014;2023-02-19T02:31:02;101590.81;;;29.61
64916;BMP280;51427;-27.442;153.014;2023-02-19T02:36:36;101587.69;;;29.66
64916;BMP280;51427;-27.442;153.014;2023-02-19T02:39:07;101587.13;;;30.32
64916;BMP280;51427;-27.442;153.014;2023-02-19T02:41:44;101590.50;;;30.02
64916;BMP280;51427;-27.442;153.014;2023-02-19T02:44:12;101600.16;;;30.08
64916;BMP280;51427;-27.442;153.014;2023-02-19T02:46:44;101590.72;;;29.93
64916;BMP280;51427;-27.442;153.014;2023-02-19T02:49:20;101585.81;;;30.28
64916;BMP280;51427;-27.442;153.014;2023-02-19T02:51:51;101585.28;;;29.80
64916;BMP280;51427;-27.442;153.014;2023-02-19T02:54:27;101577.34;;;29.89
64916;BMP280;51427;-27.442;153.014;2023-02-19T02:57:14;101579.44;;;29.32
64916;BMP280;51427;-27.442;153.014;2023-02-19T02:59:43;101575.44;;;30.13
64916;BMP280;51427;-27.442;153.014;2023-02-19T03:05:09;101593.28;;;28.99
64916;BMP280;51427;-27.442;153.014;2023-02-19T03:10:41;101575.13;;;29.63
64916;BMP280;51427;-27.442;153.014;2023-02-19T03:13:35;101561.75;;;29.59
64916;BMP280;51427;-27.442;153.014;2023-02-19T03:16:27;101573.63;;;29.22
64916;BMP280;51427;-27.442;153.014;2023-02-19T03:19:16;101571.69;;;29.16
64916;BMP280;51427;-27.442;153.014;2023-02-19T03:24:22;101565.88;;;29.30
64916;BMP280;51427;-27.442;153.014;2023-02-19T03:27:09;101582.00;;;29.40
64916;BMP280;51427;-27.442;153.014;2023-02-19T03:29:38;101583.28;;;29.12
64916;BMP280;51427;-27.442;153.014;2023-02-19T03:32:30;101581.66;;;29.11
64916;BMP280;51427;-27.442;153.014;2023-02-19T03:35:08;101561.75;;;29.59
64916;BMP280;51427;-27.442;153.014;2023-02-19T03:37:51;101554.84;;;29.52
64916;BMP280;51427;-27.442;153.014;2023-02-19T03:40:25;101549.09;;;29.42
64916;BMP280;51427;-27.442;153.014;2023-02-19T03:43:18;101553.63;;;28.53
64916;BMP280;51427;-27.442;153.014;2023-02-19T03:46:10;101525.13;;;29.33
64916;BMP280;51427;-27.442;153.014;2023-02-19T03:54:37;101535.50;;;29.56
64916;BMP280;51427;-27.442;153.014;2023-02-19T03:57:35;101529.84;;;28.67
64916;BMP280;51427;-27.442;153.014;2023-02-19T04:00:08;101530.94;;;29.04
64916;BMP280;51427;-27.442;153.014;2023-02-19T04:05:26;101516.59;;;28.30
64916;BMP280;51427;-27.442;153.014;2023-02-19T04:07:58;101520.16;;;28.53
64916;BMP280;51427;-27.442;153.014;2023-02-19T04:10:27;101526.28;;;28.91
64916;BMP280;51427;-27.442;153.014;2023-02-19T04:13:34;101531.88;;;29.19
64916;BMP280;51427;-27.442;153.014;2023-02-19T04:16:07;101531.09;;;28.55
64916;BMP280;51427;-27.442;153.014;2023-02-19T04:18:38;101538.03;;;28.46
64916;BMP280;51427;-27.442;153.014;2023-02-19T04:21:08;101529.53;;;28.70
64916;BMP280;51427;-27.442;153.014;2023-02-19T04:23:43;101528.19;;;28.50
64916;BMP280;51427;-27.442;153.014;2023-02-19T04:26:13;101528.00;;;28.28
64916;BMP280;51427;-27.442;153.014;2023-02-19T04:28:41;101530.09;;;28.32
64916;BMP280;51427;-27.442;153.014;2023-02-19T04:31:10;101520.94;;;28.29
64916;BMP280;51427;-27.442;153.014;2023-02-19T04:33:38;101527.50;;;28.16
64916;BMP280;51427;-27.442;153.014;2023-02-19T04:36:08;101530.38;;;28.13
64916;BMP280;51427;-27.442;153.014;2023-02-19T04:38:37;101526.25;;;28.28
64916;BMP280;51427;-27.442;153.014;2023-02-19T04:41:05;101531.09;;;28.86
64916;BMP280;51427;-27.442;153.014;2023-02-19T04:43:33;101535.78;;;28.91
64916;BMP280;51427;-27.442;153.014;2023-02-19T04:46:01;101535.47;;;28.70
64916;BMP280;51427;-27.442;153.014;2023-02-19T04:48:29;101529.16;;;28.41
64916;BMP280;51427;-27.442;153.014;2023-02-19T04:50:57;101533.34;;;28.34
64916;BMP280;51427;-27.442;153.014;2023-02-19T04:53:24;101536.53;;;28.28
64916;BMP280;51427;-27.442;153.014;2023-02-19T04:55:52;101539.34;;;28.01
64916;BMP280;51427;-27.442;153.014;2023-02-19T04:58:23;101540.84;;;28.20
64916;BMP280;51427;-27.442;153.014;2023-02-19T05:00:53;101539.94;;;27.87
64916;BMP280;51427;-27.442;153.014;2023-02-19T05:03:22;101542.84;;;27.92
64916;BMP280;51427;-27.442;153.014;2023-02-19T05:05:52;101538.97;;;27.88
64916;BMP280;51427;-27.442;153.014;2023-02-19T05:08:20;101543.16;;;28.38
64916;BMP280;51427;-27.442;153.014;2023-02-19T05:10:48;101541.31;;;28.07
64916;BMP280;51427;-27.442;153.014;2023-02-19T05:13:15;101549.31;;;27.96
64916;BMP280;51427;-27.442;153.014;2023-02-19T05:15:54;101560.81;;;27.84
64916;BMP280;51427;-27.442;153.014;2023-02-19T05:18:21;101545.38;;;27.84
64916;BMP280;51427;-27.442;153.014;2023-02-19T05:20:50;101544.59;;;27.84
64916;BMP280;51427;-27.442;153.014;2023-02-19T05:23:19;101544.19;;;28.04
64916;BMP280;51427;-27.442;153.014;2023-02-19T05:25:47;101539.03;;;28.04
64916;BMP280;51427;-27.442;153.014;2023-02-19T05:28:15;101540.91;;;27.94
64916;BMP280;51427;-27.442;153.014;2023-02-19T05:30:50;101551.75;;;27.73
64916;BMP280;51427;-27.442;153.014;2023-02-19T05:33:20;101539.22;;;27.70
64916;BMP280;51427;-27.442;153.014;2023-02-19T05:35:53;101548.91;;;27.83
64916;BMP280;51427;-27.442;153.014;2023-02-19T05:38:27;101547.94;;;27.77
64916;BMP280;51427;-27.442;153.014;2023-02-19T05:40:54;101543.44;;;27.79
64916;BMP280;51427;-27.442;153.014;2023-02-19T05:43:22;101541.91;;;28.01
64916;BMP280;51427;-27.442;153.014;2023-02-19T05:45:49;101543.44;;;27.79
64916;BMP280;51427;-27.442;153.014;2023-02-19T05:48:17;101546.44;;;27.66
64916;BMP280;51427;-27.442;153.014;2023-02-19T05:50:45;101535.47;;;27.56
64916;BMP280;51427;-27.442;153.014;2023-02-19T05:53:12;101531.53;;;27.78
64916;BMP280;51427;-27.442;153.014;2023-02-19T05:55:40;101534.34;;;27.59
64916;BMP280;51427;-27.442;153.014;2023-02-19T05:58:08;101532.44;;;27.61
64916;BMP280;51427;-27.442;153.014;2023-02-19T06:00:35;101541.72;;;27.54
64916;BMP280;51427;-27.442;153.014;2023-02-19T06:03:03;101529.81;;;27.53
64916;BMP280;51427;-27.442;153.014;2023-02-19T06:05:36;101534.69;;;27.38
64916;BMP280;51427;-27.442;153.014;2023-02-19T06:08:03;101539.59;;;27.24
64916;BMP280;51427;-27.442;153.014;2023-02-19T06:10:31;101534.31;;;27.51
64916;BMP280;51427;-27.442;153.014;2023-02-19T06:12:59;101537.78;;;27.67
64916;BMP280;51427;-27.442;153.014;2023-02-19T06:15:26;101543.38;;;27.63
64916;BMP280;51427;-27.442;153.014;2023-02-19T06:17:54;101540.56;;;27.31
64916;BMP280;51427;-27.442;153.014;2023-02-19T06:20:22;101542.41;;;27.13
64916;BMP280;51427;-27.442;153.014;2023-02-19T06:22:52;101549.13;;;27.06
64916;BMP280;51427;-27.442;153.014;2023-02-19T06:25:20;101554.31;;;27.14
64916;BMP280;51427;-27.442;153.014;2023-02-19T06:27:48;101555.50;;;27.02
64916;BMP280;51427;-27.442;153.014;2023-02-19T06:30:18;101557.22;;;26.94
64916;BMP280;51427;-27.442;153.014;2023-02-19T06:32:46;101565.06;;;26.92
64916;BMP280;51427;-27.442;153.014;2023-02-19T06:35:13;101558.72;;;27.04
64916;BMP280;51427;-27.442;153.014;2023-02-19T06:37:41;101557.78;;;27.05
64916;BMP280;51427;-27.442;153.014;2023-02-19T06:40:09;101548.88;;;26.83
64916;BMP280;51427;-27.442;153.014;2023-02-19T06:42:36;101558.00;;;26.94
64916;BMP280;51427;-27.442;153.014;2023-02-19T06:45:04;101576.06;;;27.02
64916;BMP280;51427;-27.442;153.014;2023-02-19T06:47:32;101569.53;;;26.90
64916;BMP280;51427;-27.442;153.014;2023-02-19T06:50:03;101575.41;;;27.00
64916;BMP280;51427;-27.442;153.014;2023-02-19T06:52:31;101573.56;;;26.93
64916;BMP280;51427;-27.442;153.014;2023-02-19T06:54:58;101576.19;;;26.84
64916;BMP280;51427;-27.442;153.014;2023-02-19T06:57:26;101576.28;;;26.74
64916;BMP280;51427;-27.442;153.014;2023-02-19T06:59:54;101579.28;;;26.70
64916;BMP280;51427;-27.442;153.014;2023-02-19T07:02:24;101589.91;;;26.75
64916;BMP280;51427;-27.442;153.014;2023-02-19T07:04:52;101585.88;;;26.55
64916;BMP280;51427;-27.442;153.014;2023-02-19T07:07:19;101590.41;;;26.61
64916;BMP280;51427;-27.442;153.014;2023-02-19T07:09:46;101593.88;;;26.69
64916;BMP280;51427;-27.442;153.014;2023-02-19T07:12:14;101595.63;;;26.69
64916;BMP280;51427;-27.442;153.014;2023-02-19T07:14:41;101604.72;;;26.46
64916;BMP280;51427;-27.442;153.014;2023-02-19T07:17:08;101600.81;;;26.42
64916;BMP280;51427;-27.442;153.014;2023-02-19T07:19:35;101605.94;;;26.42
64916;BMP280;51427;-27.442;153.014;2023-02-19T07:22:02;101610.56;;;26.39
64916;BMP280;51427;-27.442;153.014;2023-02-19T07:24:30;101608.53;;;26.42
64916;BMP280;51427;-27.442;153.014;2023-02-19T07:26:57;101610.28;;;26.42
64916;BMP280;51427;-27.442;153.014;2023-02-19T07:29:24;101618.50;;;26.45
64916;BMP280;51427;-27.442;153.014;2023-02-19T07:31:51;101610.34;;;26.32
64916;BMP280;51427;-27.442;153.014;2023-02-19T07:34:18;101620.31;;;26.35
64916;BMP280;51427;-27.442;153.014;2023-02-19T07:36:46;101619.78;;;26.32
64916;BMP280;51427;-27.442;153.014;2023-02-19T07:39:13;101624.25;;;26.30
64916;BMP280;51427;-27.442;153.014;2023-02-19T07:41:41;101629.00;;;26.25
64916;BMP280;51427;-27.442;153.014;2023-02-19T07:44:08;101630.91;;;26.23
64916;BMP280;51427;-27.442;153.014;2023-02-19T07:46:38;101635.88;;;26.24
64916;BMP280;51427;-27.442;153.014;2023-02-19T07:49:06;101632.69;;;26.13
64916;BMP280;51427;-27.442;153.014;2023-02-19T07:51:33;101634.69;;;26.19
64916;BMP280;51427;-27.442;153.014;2023-02-19T07:54:00;101644.16;;;26.18
64916;BMP280;51427;-27.442;153.014;2023-02-19T07:56:28;101642.94;;;26.13
64916;BMP280;51427;-27.442;153.014;2023-02-19T07:58:55;101649.88;;;26.03
64916;BMP280;51427;-27.442;153.014;2023-02-19T08:01:23;101649.47;;;26.07
64916;BMP280;51427;-27.442;153.014;2023-02-19T08:04:09;101653.13;;;26.05
64916;BMP280;51427;-27.442;153.014;2023-02-19T08:06:38;101663.91;;;26.08
64916;BMP280;51427;-27.442;153.014;2023-02-19T08:09:05;101670.66;;;26.09
64916;BMP280;51427;-27.442;153.014;2023-02-19T08:11:33;101661.63;;;26.05
64916;BMP280;51427;-27.442;153.014;2023-02-19T08:14:18;101671.34;;;26.02
64916;BMP280;51427;-27.442;153.014;2023-02-19T08:16:52;101681.09;;;25.98
64916;BMP280;51427;-27.442;153.014;2023-02-19T08:19:20;101677.84;;;25.97
64916;BMP280;51427;-27.442;153.014;2023-02-19T08:21:47;101682.06;;;25.88
64916;BMP280;51427;-27.442;153.014;2023-02-19T08:24:15;101680.59;;;25.86
64916;BMP280;51427;-27.442;153.014;2023-02-19T08:26:43;101687.06;;;25.80
64916;BMP280;51427;-27.442;153.014;2023-02-19T08:29:10;101694.25;;;25.77
64916;BMP280;51427;-27.442;153.014;2023-02-19T08:31:37;101694.63;;;25.82
64916;BMP280;51427;-27.442;153.014;2023-02-19T08:34:04;101698.72;;;25.75
64916;BMP280;51427;-27.442;153.014;2023-02-19T08:36:32;101709.50;;;25.69
64916;BMP280;51427;-27.442;153.014;2023-02-19T08:38:59;101706.66;;;25.62
64916;BMP280;51427;-27.442;153.014;2023-02-19T08:41:26;101706.94;;;25.59
64916;BMP280;51427;-27.442;153.014;2023-02-19T08:43:53;101709.38;;;25.51
64916;BMP280;51427;-27.442;153.014;2023-02-19T08:46:21;101713.81;;;25.50
64916;BMP280;51427;-27.442;153.014;2023-02-19T08:48:48;101707.47;;;25.53
64916;BMP280;51427;-27.442;153.014;2023-02-19T08:51:15;101722.44;;;25.49
64916;BMP280;51427;-27.442;153.014;2023-02-19T08:53:42;101715.56;;;25.49
64916;BMP280;51427;-27.442;153.014;2023-02-19T08:56:12;101716.38;;;25.50
64916;BMP280;51427;-27.442;153.014;2023-02-19T08:58:40;101723.38;;;25.48
64916;BMP280;51427;-27.442;153.014;2023-02-19T09:01:09;101719.34;;;25.45
64916;BMP280;51427;-27.442;153.014;2023-02-19T09:03:37;101722.06;;;25.34
64916;BMP280;51427;-27.442;153.014;2023-02-19T09:06:05;101723.94;;;25.42
64916;BMP280;51427;-27.442;153.014;2023-02-19T09:08:32;101726.91;;;25.37
64916;BMP280;51427;-27.442;153.014;2023-02-19T09:11:01;101734.19;;;25.32
64916;BMP280;51427;-27.442;153.014;2023-02-19T09:13:30;101732.56;;;25.31
64916;BMP280;51427;-27.442;153.014;2023-02-19T09:15:57;101732.56;;;25.31
64916;BMP280;51427;-27.442;153.014;2023-02-19T09:18:25;101737.44;;;25.34
64916;BMP280;51427;-27.442;153.014;2023-02-19T09:20:52;101735.94;;;25.32
64916;BMP280;51427;-27.442;153.014;2023-02-19T09:23:19;101745.38;;;25.31
64916;BMP280;51427;-27.442;153.014;2023-02-19T09:25:47;101737.56;;;25.23
64916;BMP280;51427;-27.442;153.014;2023-02-19T09:28:14;101740.78;;;25.25
64916;BMP280;51427;-27.442;153.014;2023-02-19T09:30:42;101743.75;;;25.30
64916;BMP280;51427;-27.442;153.014;2023-02-19T09:33:09;101749.56;;;25.32
64916;BMP280;51427;-27.442;153.014;2023-02-19T09:35:40;101752.94;;;25.33
64916;BMP280;51427;-27.442;153.014;2023-02-19T09:38:07;101757.09;;;25.34
64916;BMP280;51427;-27.442;153.014;2023-02-19T09:40:37;101762.78;;;25.28
64916;BMP280;51427;-27.442;153.014;2023-02-19T09:43:08;101770.06;;;25.32
64916;BMP280;51427;-27.442;153.014;2023-02-19T09:45:39;101774.50;;;25.30
64916;BMP280;51427;-27.442;153.014;2023-02-19T09:48:07;101768.19;;;25.34
64916;BMP280;51427;-27.442;153.014;2023-02-19T09:50:44;101778.16;;;25.28
64916;BMP280;51427;-27.442;153.014;2023-02-19T09:53:19;101780.84;;;25.26
64916;BMP280;51427;-27.442;153.014;2023-02-19T09:55:48;101784.88;;;25.29
64916;BMP280;51427;-27.442;153.014;2023-02-19T09:58:41;101792.97;;;25.24
64916;BMP280;51427;-27.442;153.014;2023-02-19T10:01:11;101787.31;;;25.30
64916;BMP280;51427;-27.442;153.014;2023-02-19T10:03:40;101791.09;;;25.26
64916;BMP280;51427;-27.442;153.014;2023-02-19T10:08:47;101807.38;;;25.16
64916;BMP280;51427;-27.442;153.014;2023-02-19T10:11:16;101810.34;;;25.11
64916;BMP280;51427;-27.442;153.014;2023-02-19T10:16:21;101812.50;;;25.16
64916;BMP280;51427;-27.442;153.014;2023-02-19T10:18:50;101816.44;;;25.20
64916;BMP280;51427;-27.442;153.014;2023-02-19T10:21:25;101808.31;;;25.15
64916;BMP280;51427;-27.442;153.014;2023-02-19T10:23:56;101819.91;;;25.09
64916;BMP280;51427;-27.442;153.014;2023-02-19T10:26:25;101820.84;;;25.08
64916;BMP280;51427;-27.442;153.014;2023-02-19T10:28:53;101832.47;;;25.12
64916;BMP280;51427;-27.442;153.014;2023-02-19T10:31:23;101830.69;;;25.13
64916;BMP280;51427;-27.442;153.014;2023-02-19T10:33:56;101826.63;;;25.10
64916;BMP280;51427;-27.442;153.014;2023-02-19T10:38:55;101828.53;;;25.08
64916;BMP280;51427;-27.442;153.014;2023-02-19T10:41:25;101839.03;;;25.05
64916;BMP280;51427;-27.442;153.014;2023-02-19T10:44:28;101831.22;;;25.07
64916;BMP280;51427;-27.442;153.014;2023-02-19T10:46:59;101829.63;;;25.06
64916;BMP280;51427;-27.442;153.014;2023-02-19T10:49:28;101825.16;;;25.08
64916;BMP280;51427;-27.442;153.014;2023-02-19T10:52:00;101828.53;;;25.08
64916;BMP280;51427;-27.442;153.014;2023-02-19T10:54:32;101832.31;;;25.05
64916;BMP280;51427;-27.442;153.014;2023-02-19T11:00:05;101823.66;;;25.05
64916;BMP280;51427;-27.442;153.014;2023-02-19T11:02:39;101827.19;;;25.05
64916;BMP280;51427;-27.442;153.014;2023-02-19T11:07:55;101844.56;;;25.10
64916;BMP280;51427;-27.442;153.014;2023-02-19T11:10:41;101845.53;;;25.09
64916;BMP280;51427;-27.442;153.014;2023-02-19T11:13:15;101845.91;;;25.05
64916;BMP280;51427;-27.442;153.014;2023-02-19T11:15:50;101847.69;;;25.05
64916;BMP280;51427;-27.442;153.014;2023-02-19T11:18:32;101851.41;;;25.01
64916;BMP280;51427;-27.442;153.014;2023-02-19T11:21:03;101853.31;;;24.99
64916;BMP280;51427;-27.442;153.014;2023-02-19T11:23:42;101856.91;;;24.96
64916;BMP280;51427;-27.442;153.014;2023-02-19T11:26:19;101855.88;;;24.99
64916;BMP280;51427;-27.442;153.014;2023-02-19T11:28:58;101853.78;;;24.93
64916;BMP280;51427;-27.442;153.014;2023-02-19T11:31:30;101857.81;;;24.86
64916;BMP280;51427;-27.442;153.014;2023-02-19T11:34:01;101859.66;;;24.84
64916;BMP280;51427;-27.442;153.014;2023-02-19T11:36:38;101858.66;;;24.96
64916;BMP280;51427;-27.442;153.014;2023-02-19T11:44:42;101863.28;;;24.72
64916;BMP280;51427;-27.442;153.014;2023-02-19T11:58:54;101851.41;;;24.71
64916;BMP280;51427;-27.442;153.014;2023-02-19T12:15:20;101844.34;;;24.63
64916;BMP280;51427;-27.442;153.014;2023-02-19T12:18:10;101849.47;;;24.63
64916;BMP280;51427;-27.442;153.014;2023-02-19T12:31:53;101849.69;;;24.81
64916;BMP280;51427;-27.442;153.014;2023-02-19T12:40:42;101842.47;;;24.86
64916;BMP280;51427;-27.442;153.014;2023-02-19T12:43:19;101840.44;;;24.89
64916;BMP280;51427;-27.442;153.014;2023-02-19T12:45:59;101839.75;;;24.87
64916;BMP280;51427;-27.442;153.014;2023-02-19T12:51:29;101835.69;;;24.85
64916;BMP280;51427;-27.442;153.014;2023-02-19T12:59:27;101817.66;;;24.86
64916;BMP280;51427;-27.442;153.014;2023-02-19T13:02:15;101813.59;;;24.84
64916;BMP280;51427;-27.442;153.014;2023-02-19T13:05:08;101806.28;;;24.79
64916;BMP280;51427;-27.442;153.014;2023-02-19T13:12:50;101795.50;;;24.76
64916;BMP280;51427;-27.442;153.014;2023-02-19T13:15:36;101796.97;;;24.69
64916;BMP280;51427;-27.442;153.014;2023-02-19T13:18:34;101806.13;;;24.71
64916;BMP280;51427;-27.442;153.014;2023-02-19T13:21:03;101810.44;;;24.71
64916;BMP280;51427;-27.442;153.014;2023-02-19T13:23:34;101804.53;;;24.70
64916;BMP280;51427;-27.442;153.014;2023-02-19T13:37:19;101814.34;;;24.65
64916;BMP280;51427;-27.442;153.014;2023-02-19T13:39:49;101816.19;;;24.63
64916;BMP280;51427;-27.442;153.014;2023-02-19T13:42:35;101805.69;;;24.66
64916;BMP280;51427;-27.442;153.014;2023-02-19T13:45:04;101805.69;;;24.66
64916;BMP280;51427;-27.442;153.014;2023-02-19T13:50:32;101807.59;;;24.64
64916;BMP280;51427;-27.442;153.014;2023-02-19T13:53:01;101807.97;;;24.60
64916;BMP280;51427;-27.442;153.014;2023-02-19T13:55:50;101805.41;;;24.60
64916;BMP280;51427;-27.442;153.014;2023-02-19T13:58:37;101795.69;;;24.54
64916;BMP280;51427;-27.442;153.014;2023-02-19T14:01:11;101794.47;;;24.49
64916;BMP280;51427;-27.442;153.014;2023-02-19T14:03:46;101785.94;;;24.48
64916;BMP280;51427;-27.442;153.014;2023-02-19T14:06:16;101776.13;;;24.44
64916;BMP280;51427;-27.442;153.014;2023-02-19T14:08:54;101774.38;;;24.44
64916;BMP280;51427;-27.442;153.014;2023-02-19T14:14:27;101764.25;;;24.43
64916;BMP280;51427;-27.442;153.014;2023-02-19T14:19:46;101761.69;;;24.43
64916;BMP280;51427;-27.442;153.014;2023-02-19T14:28:21;101763.88;;;24.47
64916;BMP280;51427;-27.442;153.014;2023-02-19T14:33:26;101752.44;;;24.51
64916;BMP280;51427;-27.442;153.014;2023-02-19T14:38:44;101753.94;;;24.54
64916;BMP280;51427;-27.442;153.014;2023-02-19T14:41:14;101751.91;;;24.57
64916;BMP280;51427;-27.442;153.014;2023-02-19T14:43:43;101753.69;;;24.57
64916;BMP280;51427;-27.442;153.014;2023-02-19T14:46:26;101748.31;;;24.59
64916;BMP280;51427;-27.442;153.014;2023-02-19T14:48:56;101752.75;;;24.67
64916;BMP280;51427;-27.442;153.014;2023-02-19T14:53:57;101746.69;;;24.68
64916;BMP280;51427;-27.442;153.014;2023-02-19T14:56:27;101744.81;;;24.70
64916;BMP280;51427;-27.442;153.014;2023-02-19T14:59:28;101737.97;;;24.70
64916;BMP280;51427;-27.442;153.014;2023-02-19T15:02:00;101743.59;;;24.64
64916;BMP280;51427;-27.442;153.014;2023-02-19T15:04:45;101748.59;;;24.66
64916;BMP280;51427;-27.442;153.014;2023-02-19T15:07:19;101734.03;;;24.66
64916;BMP280;51427;-27.442;153.014;2023-02-19T15:09:50;101730.53;;;24.67
64916;BMP280;51427;-27.442;153.014;2023-02-19T15:12:21;101724.47;;;24.68
64916;BMP280;51427;-27.442;153.014;2023-02-19T15:14:53;101727.56;;;24.62
64916;BMP280;51427;-27.442;153.014;2023-02-19T15:17:29;101715.03;;;24.59
64916;BMP280;51427;-27.442;153.014;2023-02-19T15:20:02;101716.50;;;24.62
64916;BMP280;51427;-27.442;153.014;2023-02-19T15:22:31;101711.63;;;24.59
64916;BMP280;51427;-27.442;153.014;2023-02-19T15:25:03;101705.84;;;24.57
64916;BMP280;51427;-27.442;153.014;2023-02-19T15:27:31;101701.81;;;24.55
64916;BMP280;51427;-27.442;153.014;2023-02-19T15:30:02;101704.75;;;24.50
64916;BMP280;51427;-27.442;153.014;2023-02-19T15:32:30;101697.22;;;24.49
64916;BMP280;51427;-27.442;153.014;2023-02-19T15:35:02;101698.53;;;24.43
64916;BMP280;51427;-27.442;153.014;2023-02-19T15:37:32;101695.84;;;24.45
64916;BMP280;51427;-27.442;153.014;2023-02-19T15:40:04;101693.28;;;24.45
64916;BMP280;51427;-27.442;153.014;2023-02-19T15:42:34;101692.59;;;24.43
64916;BMP280;51427;-27.442;153.014;2023-02-19T15:53:07;101674.34;;;24.27
64916;BMP280;51427;-27.442;153.014;2023-02-19T16:01:05;101672.69;;;24.16
64916;BMP280;51427;-27.442;153.014;2023-02-19T16:03:37;101671.88;;;24.16
64916;BMP280;51427;-27.442;153.014;2023-02-19T16:06:10;101674.44;;;24.16
64916;BMP280;51427;-27.442;153.014;2023-02-19T16:08:45;101674.84;;;24.21
64916;BMP280;51427;-27.442;153.014;2023-02-19T16:13:50;101666.88;;;24.14
64916;BMP280;51427;-27.442;153.014;2023-02-19T16:16:22;101679.47;;;23.97
64916;BMP280;51427;-27.442;153.014;2023-02-19T16:18:52;101673.56;;;24.06
64916;BMP280;51427;-27.442;153.014;2023-02-19T16:21:21;101664.28;;;24.05
64916;BMP280;51427;-27.442;153.014;2023-02-19T16:24:03;101674.00;;;24.11